Flight Track Log - Related Links

Times and Time Zones

All times are in EDT time to prevent confusion due to time zone crossing. See the N884FT flight status page for this flight to view local times or setup timezone preferences in your user account.


Time Position Orientation Groundspeed Altitude Reporting Facility
EDT Latitude Longitude Course Direction KTS MPH feet Rate Location/Type
Sat 04:23:05 PM 27.9667 -82.7000 82° East 100 115 1,900  Level Tampa TRACON
Sat 04:24:05 PM 28.0000 -82.7000 360° North 102 117 2,700 600 Climbing Tampa TRACON
Sat 04:25:05 PM 27.9833 -82.6833 139° Southeast 115 132 3,100 150 Climbing Tampa TRACON
Sat 04:26:05 PM 27.9667 -82.6333 111° Southeast 127 146 3,000 150 Descending Tampa TRACON
Sat 04:27:00 PM 27.9314 -82.4135 81° East  Level FlightAware Approximate
Sat 04:27:05 PM 27.9667 -82.6000 90° East 142 163 3,400  Level Tampa TRACON
Sat 04:28:00 PM 27.9373 -82.3685 82° East  Level FlightAware Approximate
Sat 04:28:05 PM 27.9667 -82.5500 90° East 119 137 4,100  Level Tampa TRACON
Sat 04:29:05 PM 27.9667 -82.5167 90° East 149 171 4,100 -50 Level Tampa TRACON
Sat 04:30:05 PM 27.9667 -82.4667 90° East 153 176 4,000 -50 Descending Tampa TRACON
Sat 04:31:05 PM 27.9667 -82.4167 90° East 147 169 4,000 149 Level Tampa TRACON
Sat 04:32:06 PM 27.9667 -82.3667 90° East 148 170 4,300 595 Climbing Tampa TRACON
Sat 04:33:06 PM 27.9500 -82.3333 120° Southeast 125 144 5,200 850 Climbing Tampa TRACON
Sat 04:34:06 PM 27.9500 -82.3000 90° East 126 145 6,000 800 Climbing Tampa TRACON
Sat 04:35:06 PM 27.9500 -82.2500 90° East 127 146 6,800 550 Climbing Tampa TRACON
Sat 04:36:06 PM 27.9667 -82.2167 60° Northeast 151 174 7,100 150 Climbing Tampa TRACON
Sat 04:37:06 PM 27.9667 -82.1667 90° East 161 185 7,100  Level Tampa TRACON
Sat 04:38:06 PM 27.9833 -82.1167 69° East 165 190 7,100  Level Tampa TRACON
Sat 04:39:06 PM 27.9833 -82.0667 90° East 165 190 7,100 -32 Level Tampa TRACON
Sat 04:41:11 PM 28.0000 -81.9500 81° East 166 191 7,000  Descending Orlando TRACON
Sat 04:42:11 PM 28.0000 -81.9000 90° East 165 190 7,100 50 Climbing Orlando TRACON
Sat 04:43:11 PM 28.0000 -81.8500 90° East 165 190 7,100  Level Orlando TRACON
Sat 04:44:11 PM 28.0167 -81.8000 69° East 163 188 7,100  Level Orlando TRACON
Sat 04:45:12 PM 28.0167 -81.7500 90° East 165 190 7,100 -50 Level Orlando TRACON
Sat 04:46:12 PM 28.0333 -81.7000 69° East 165 190 7,000  Descending Orlando TRACON
Sat 04:47:12 PM 28.0333 -81.6500 90° East 166 191 7,100 50 Climbing Orlando TRACON
Sat 04:48:12 PM 28.0500 -81.6000 69° East 166 191 7,100  Level Orlando TRACON
Sat 04:49:12 PM 28.0500 -81.5500 90° East 166 191 7,100  Level Orlando TRACON
Sat 04:50:13 PM 28.0500 -81.4833 90° East 165 190 7,100 -198 Level Orlando TRACON
Sat 04:51:13 PM 28.0667 -81.4333 69° East 170 196 6,700 -400 Descending Orlando TRACON
Sat 04:52:13 PM 28.0833 -81.3833 69° East 181 208 6,300 -450 Descending Orlando TRACON
Sat 04:53:13 PM 28.0833 -81.3333 90° East 179 206 5,800 -450 Descending Orlando TRACON
Sat 04:54:13 PM 28.0833 -81.2667 90° East 177 204 5,400 -397 Descending Orlando TRACON
Sat 04:55:14 PM 28.0833 -81.2167 90° East 175 201 5,000 -261 Descending Orlando TRACON
Sat 04:56:08 PM 28.1000 -81.1667 69° East 163 188 4,900 -316 Descending Orlando TRACON
Sat 04:57:08 PM 28.1000 -81.1167 90° East 167 192 4,400 -500 Descending Orlando TRACON
Sat 04:58:08 PM 28.1000 -81.0667 90° East 157 181 3,900 -500 Descending Orlando TRACON
Sat 04:59:08 PM 28.0833 -81.0167 111° Southeast 161 185 3,400 -450 Descending Orlando TRACON
Sat 05:00:08 PM 28.0833 -80.9667 90° East 161 185 3,000 -446 Descending Orlando TRACON
Sat 05:01:09 PM 28.0833 -80.9167 90° East 167 192 2,500 -545 Descending Orlando TRACON
Sat 05:02:09 PM 28.1000 -80.8833 60° Northeast 150 173 1,900 -450 Descending Orlando TRACON
Sat 05:03:09 PM 28.1000 -80.8333 90° East 121 139 1,600 -150 Descending Orlando TRACON
Sat 05:04:09 PM 28.1000 -80.8000 90° East 101 116 1,600 50 Level Orlando TRACON
Sat 05:05:09 PM 28.1000 -80.7667 90° East 109 125 1,700 -100 Climbing Orlando TRACON
Sat 05:06:09 PM 28.1000 -80.7333 90° East 97 112 1,400 -429 Descending Orlando TRACON
Sat 05:07:15 PM 28.1000 -80.7000 90° East 103 119 800 -472 Descending Orlando TRACON
Sat 05:08:16 PM 28.1000 -80.6833 90° East 91 105 400 -393 Descending Orlando TRACON
Sat 05:10:00 PM 28.1028 -80.6453 79° East  Level Estimated

Login

Don't have an account? Register now (free) for customized features, flight alerts, and more!